Time;durP1;ratioP1;P1;durP2;ratioP2;P2;SDS_P1;SDS_P2;PMS_P1;PMS_P2;Temp;Humidity;BMP_temperature;BMP_pressure;BME280_temperature;BME280_humidity;BME280_pressure;Samples;Min_cycle;Max_cycle;Signal;HPM_P1;HPM_P2
2021/05/02 00:00:31;;;;;;;1999.90;999.90;;;9.40;99.90;;;;;;5059343;28;20196;-80
2021/05/02 00:02:59;;;;;;;1999.90;999.90;;;9.40;99.90;;;;;;5078296;28;20561;-81
2021/05/02 00:05:28;;;;;;;1999.90;999.90;;;9.40;99.90;;;;;;5059577;28;20168;-81
2021/05/02 00:07:54;;;;;;;1999.90;999.90;;;9.30;99.90;;;;;;5077017;28;20263;-81
2021/05/02 00:10:21;;;;;;;1999.90;999.90;;;9.30;99.90;;;;;;5077645;28;20175;-81
2021/05/02 00:12:48;;;;;;;1999.90;999.90;;;9.30;99.90;;;;;;5077499;28;20464;-81
2021/05/02 00:15:16;;;;;;;1999.90;999.90;;;9.20;99.90;;;;;;5077566;28;20176;-81
2021/05/02 00:17:44;;;;;;;1999.90;999.90;;;9.20;99.90;;;;;;5077510;28;20597;-80
2021/05/02 00:20:12;;;;;;;1999.90;999.90;;;9.10;99.90;;;;;;5077679;28;20200;-81
2021/05/02 00:22:38;;;;;;;1999.90;999.90;;;9.00;99.90;;;;;;5078040;28;20170;-81
2021/05/02 00:25:07;;;;;;;1999.90;999.90;;;9.00;99.90;;;;;;5078062;28;20531;-81
2021/05/02 00:27:32;;;;;;;1999.90;999.90;;;8.90;99.90;;;;;;5078097;28;20188;-81
2021/05/02 00:29:59;;;;;;;1999.90;999.90;;;8.90;99.90;;;;;;5065294;28;20261;-80
2021/05/02 00:32:28;;;;;;;1999.90;999.90;;;8.90;99.90;;;;;;5081768;28;20155;-80
2021/05/02 00:34:55;;;;;;;1999.90;999.90;;;8.80;99.90;;;;;;5077298;28;20180;-80
2021/05/02 00:37:21;;;;;;;1999.90;999.90;;;8.80;99.90;;;;;;5058864;28;20194;-80
2021/05/02 00:39:47;;;;;;;1999.90;999.90;;;8.90;99.90;;;;;;5077320;28;20172;-81
2021/05/02 00:42:25;;;;;;;1999.90;999.90;;;8.90;99.90;;;;;;5077267;28;20176;-81
2021/05/02 00:45:01;;;;;;;1999.90;999.90;;;8.90;99.90;;;;;;5059727;28;20176;-81
2021/05/02 00:47:38;;;;;;;1999.90;999.90;;;8.80;99.90;;;;;;5077080;28;20179;-80
2021/05/02 00:50:09;;;;;;;1999.90;999.90;;;8.80;99.90;;;;;;5059584;28;20187;-81
2021/05/02 00:52:47;;;;;;;1999.90;999.90;;;8.70;99.90;;;;;;5077475;28;20148;-81
2021/05/02 00:55:27;;;;;;;1999.90;999.90;;;8.60;99.90;;;;;;5077250;28;20155;-80
2021/05/02 00:58:04;;;;;;;1999.90;999.90;;;8.70;99.90;;;;;;5077227;28;20245;-80
2021/05/02 01:00:32;;;;;;;1999.90;999.90;;;8.70;99.90;;;;;;5077009;28;20627;-81
2021/05/02 01:03:00;;;;;;;1999.90;999.90;;;8.70;99.90;;;;;;5077096;28;20164;-80
2021/05/02 01:05:28;;;;;;;1999.90;999.90;;;8.60;99.90;;;;;;5077108;28;20163;-81
2021/05/02 01:08:00;;;;;;;1999.90;999.90;;;8.60;99.90;;;;;;5077306;28;20263;-81
2021/05/02 01:10:27;;;;;;;1999.90;999.90;;;8.60;99.90;;;;;;5077093;28;20164;-81
2021/05/02 01:12:55;;;;;;;1999.90;999.90;;;8.70;99.90;;;;;;5062213;28;20233;-81
2021/05/02 01:15:26;;;;;;;1999.90;999.90;;;8.60;99.90;;;;;;5064214;28;20195;-81
2021/05/02 01:18:10;;;;;;;1999.90;999.90;;;8.60;99.90;;;;;;5063002;28;20237;-81
2021/05/02 01:20:41;;;;;;;1999.90;999.90;;;8.50;99.90;;;;;;5081223;28;20152;-81
2021/05/02 01:23:26;;;;;;;1999.90;999.90;;;8.60;99.90;;;;;;5081468;28;20160;-81
2021/05/02 01:25:58;;;;;;;1999.90;999.90;;;8.50;99.90;;;;;;5081364;28;20159;-81
2021/05/02 01:28:24;;;;;;;1999.90;999.90;;;8.40;99.90;;;;;;5063423;28;20622;-81
2021/05/02 01:30:50;;;;;;;1999.90;999.90;;;8.30;99.90;;;;;;5080974;28;20262;-81
2021/05/02 01:33:17;;;;;;;1999.90;999.90;;;8.40;99.90;;;;;;5062485;28;20168;-81
2021/05/02 01:35:43;;;;;;;1999.90;999.90;;;8.40;99.90;;;;;;5062956;28;20178;-81
2021/05/02 01:38:09;;;;;;;1999.90;999.90;;;8.30;99.90;;;;;;5062361;28;20742;-80
2021/05/02 01:40:35;;;;;;;1999.90;999.90;;;8.20;99.90;;;;;;5081120;28;20203;-81
2021/05/02 01:43:04;;;;;;;1999.90;999.90;;;8.20;99.90;;;;;;5062847;28;20176;-81
2021/05/02 01:45:30;;;;;;;1999.90;999.90;;;8.20;99.90;;;;;;5062787;28;20164;-81
2021/05/02 01:48:03;;;;;;;1999.90;999.90;;;8.20;99.90;;;;;;5080914;28;20187;-81
2021/05/02 01:50:32;;;;;;;1999.90;999.90;;;8.30;99.90;;;;;;5062778;28;20246;-81
2021/05/02 01:52:59;;;;;;;1999.90;999.90;;;8.20;99.90;;;;;;5063058;28;20193;-81
2021/05/02 01:55:24;;;;;;;1999.90;999.90;;;8.20;99.90;;;;;;5080491;28;20156;-81
2021/05/02 01:57:52;;;;;;;1999.90;999.90;;;8.00;99.90;;;;;;5063182;28;20193;-80
2021/05/02 02:00:21;;;;;;;1999.90;999.90;;;8.00;99.90;;;;;;5080451;28;20170;-81
2021/05/02 02:02:48;;;;;;;1999.90;999.90;;;7.90;99.90;;;;;;5062734;28;20174;-81
2021/05/02 02:05:15;;;;;;;1999.90;999.90;;;7.90;99.90;;;;;;5080271;28;20170;-81
2021/05/02 02:07:42;;;;;;;1999.90;999.90;;;7.90;99.90;;;;;;5080516;28;20180;-81
2021/05/02 02:10:10;;;;;;;1999.90;999.90;;;8.00;99.90;;;;;;5080272;28;20164;-80
2021/05/02 02:12:36;;;;;;;1999.90;999.90;;;8.00;99.90;;;;;;5079892;28;20183;-80
2021/05/02 02:15:02;;;;;;;1999.90;999.90;;;7.90;99.90;;;;;;5061545;28;20177;-81
2021/05/02 02:17:28;;;;;;;1999.90;999.90;;;8.00;99.90;;;;;;5079666;28;20188;-81
2021/05/02 02:19:55;;;;;;;1999.90;999.90;;;8.00;99.90;;;;;;5080134;28;20188;-81
2021/05/02 02:22:22;;;;;;;1999.90;999.90;;;8.00;99.90;;;;;;5080353;28;20183;-81
2021/05/02 02:24:57;;;;;;;1999.90;999.90;;;8.00;99.90;;;;;;5079661;28;20160;-81
2021/05/02 02:27:27;;;;;;;1999.90;999.90;;;8.00;99.90;;;;;;5061729;28;20183;-81
2021/05/02 02:29:57;;;;;;;1999.90;999.90;;;8.00;99.90;;;;;;5079827;28;20171;-81
2021/05/02 02:32:23;;;;;;;1999.90;999.90;;;7.90;99.90;;;;;;5062470;28;20168;-81
2021/05/02 02:34:50;;;;;;;1999.90;999.90;;;7.90;99.90;;;;;;5079719;28;20168;-81
2021/05/02 02:37:20;;;;;;;1999.90;999.90;;;8.00;99.90;;;;;;5080206;28;20187;-81
2021/05/02 02:39:52;;;;;;;1999.90;999.90;;;7.90;99.90;;;;;;5080014;28;20188;-81
2021/05/02 02:42:19;;;;;;;1999.90;999.90;;;8.00;99.90;;;;;;5061842;28;20530;-80
2021/05/02 02:44:50;;;;;;;1999.90;999.90;;;8.00;99.90;;;;;;5079639;28;20178;-81
2021/05/02 02:47:36;;;;;;;1999.90;999.90;;;8.00;99.90;;;;;;5079100;28;20213;-81
2021/05/02 02:50:07;;;;;;;1999.90;999.90;;;8.10;99.90;;;;;;5079345;28;20163;-81
2021/05/02 02:52:48;;;;;;;1999.90;999.90;;;8.00;99.90;;;;;;5080240;28;20148;-81
2021/05/02 02:55:15;;;;;;;1999.90;999.90;;;8.00;99.90;;;;;;5061907;28;20156;-81
2021/05/02 02:57:49;;;;;;;1999.90;999.90;;;8.00;99.90;;;;;;5079647;28;20183;-80
2021/05/02 03:00:17;;;;;;;1999.90;999.90;;;8.00;99.90;;;;;;5079704;28;20168;-81
2021/05/02 03:02:47;;;;;;;1999.90;999.90;;;8.00;99.90;;;;;;5080175;28;20162;-81
2021/05/02 03:05:14;;;;;;;1999.90;999.90;;;8.10;99.90;;;;;;5079412;28;20164;-81
2021/05/02 03:07:41;;;;;;;1999.90;999.90;;;8.10;99.90;;;;;;5079268;28;20176;-80
2021/05/02 03:10:09;;;;;;;1999.90;999.90;;;8.10;99.90;;;;;;5061695;28;20297;-81
2021/05/02 03:12:47;;;;;;;1999.90;999.90;;;8.10;99.90;;;;;;5079131;28;20191;-81
2021/05/02 03:15:12;;;;;;;1999.90;999.90;;;8.10;99.90;;;;;;5061746;28;20152;-81
2021/05/02 03:17:42;;;;;;;1999.90;999.90;;;8.00;99.90;;;;;;5061122;28;20191;-80
2021/05/02 03:20:13;;;;;;;1999.90;999.90;;;8.10;99.90;;;;;;5061265;28;20195;-81
2021/05/02 03:22:42;;;;;;;1999.90;999.90;;;8.10;99.90;;;;;;5079188;28;20155;-80
2021/05/02 03:25:13;;;;;;;1999.90;999.90;;;8.10;99.90;;;;;;5078814;28;20166;-80
2021/05/02 03:27:48;;;;;;;1999.90;999.90;;;8.10;99.90;;;;;;5078857;28;20713;-80
2021/05/02 03:30:15;;;;;;;1999.90;999.90;;;8.10;99.90;;;;;;5079235;28;20162;-80
2021/05/02 03:32:47;;;;;;;1999.90;999.90;;;8.10;99.90;;;;;;5078433;28;20168;-80
2021/05/02 03:35:15;;;;;;;1999.90;999.90;;;8.10;99.90;;;;;;5077407;28;20164;-80
2021/05/02 03:37:47;;;;;;;1999.90;999.90;;;8.20;99.90;;;;;;5060642;28;20605;-79
2021/05/02 03:40:13;;;;;;;1999.90;999.90;;;8.00;99.90;;;;;;5078831;28;20224;-80
2021/05/02 03:42:39;;;;;;;1999.90;999.90;;;8.10;99.90;;;;;;5078435;28;20160;-80
2021/05/02 03:45:06;;;;;;;1999.90;999.90;;;8.10;99.90;;;;;;5078647;28;20438;-80
2021/05/02 03:47:31;;;;;;;1999.90;999.90;;;8.20;99.90;;;;;;5078240;28;20180;-80
2021/05/02 03:49:57;;;;;;;1999.90;999.90;;;8.20;99.90;;;;;;5078759;28;20267;-80
2021/05/02 03:52:23;;;;;;;1999.90;999.90;;;8.20;99.90;;;;;;5078879;28;20199;-79
2021/05/02 03:54:53;;;;;;;1999.90;999.90;;;8.30;99.90;;;;;;5078543;28;20168;-80
2021/05/02 03:57:19;;;;;;;1999.90;999.90;;;8.30;99.90;;;;;;5086113;28;20183;-78
2021/05/02 03:59:45;;;;;;;1999.90;999.90;;;8.30;99.90;;;;;;5084614;28;20184;-80
2021/05/02 04:02:13;;;;;;;1999.90;999.90;;;8.30;99.90;;;;;;5078156;28;20205;-80
2021/05/02 04:04:41;;;;;;;1999.90;999.90;;;8.20;99.90;;;;;;5078695;28;20179;-80
2021/05/02 04:07:10;;;;;;;1999.90;999.90;;;8.20;99.90;;;;;;5059958;28;20666;-80
2021/05/02 04:09:37;;;;;;;1999.90;999.90;;;8.20;99.90;;;;;;5077995;28;20175;-80
2021/05/02 04:12:04;;;;;;;1999.90;999.90;;;8.20;99.90;;;;;;5149386;22;20591;-83
2021/05/02 04:14:30;;;;;;;1999.90;999.90;;;8.20;99.90;;;;;;5085197;28;20207;-83
2021/05/02 04:16:58;;;;;;;1999.90;999.90;;;8.20;99.90;;;;;;5067440;28;20184;-83
2021/05/02 04:19:25;;;;;;;1999.90;999.90;;;8.30;99.90;;;;;;5084985;28;20449;-83
2021/05/02 04:21:51;;;;;;;1999.90;999.90;;;8.30;99.90;;;;;;5067307;28;20274;-83
2021/05/02 04:24:17;;;;;;;1999.90;999.90;;;8.30;99.90;;;;;;5085613;28;20160;-84
2021/05/02 04:26:48;;;;;;;1999.90;999.90;;;8.30;99.90;;;;;;5086048;28;20190;-83
2021/05/02 04:29:14;;;;;;;1999.90;999.90;;;8.40;99.90;;;;;;5068734;28;20164;-84
2021/05/02 04:31:40;;;;;;;1999.90;999.90;;;8.30;99.90;;;;;;5086382;28;20236;-83
2021/05/02 04:34:06;;;;;;;1999.90;999.90;;;8.30;99.90;;;;;;5086990;28;20406;-84
2021/05/02 04:36:32;;;;;;;1999.90;999.90;;;8.30;99.90;;;;;;5086481;28;20168;-83
2021/05/02 04:38:59;;;;;;;1999.90;999.90;;;8.20;99.90;;;;;;5069511;28;20286;-83
2021/05/02 04:41:25;;;;;;;1999.90;999.90;;;8.30;99.90;;;;;;5068922;28;20414;-84
2021/05/02 04:43:51;;;;;;;1999.90;999.90;;;8.30;99.90;;;;;;5087457;28;20160;-84
2021/05/02 04:46:17;;;;;;;1999.90;999.90;;;8.30;99.90;;;;;;5069658;28;20164;-83
2021/05/02 04:48:46;;;;;;;1999.90;999.90;;;8.20;99.90;;;;;;5072512;28;20195;-84
2021/05/02 04:51:13;;;;;;;1999.90;999.90;;;8.30;99.90;;;;;;5090202;28;20406;-83
2021/05/02 04:53:39;;;;;;;1999.90;999.90;;;8.30;99.90;;;;;;5090213;28;20205;-83
2021/05/02 04:56:08;;;;;;;1999.90;999.90;;;8.20;99.90;;;;;;5073370;28;20229;-84
2021/05/02 04:58:36;;;;;;;1999.90;999.90;;;8.30;99.90;;;;;;5090193;28;20192;-84
2021/05/02 05:01:05;;;;;;;1999.90;999.90;;;8.30;99.90;;;;;;5090674;28;20163;-84
2021/05/02 05:03:47;;;;;;;1999.90;999.90;;;8.30;99.90;;;;;;5090087;28;20159;-84
2021/05/02 05:06:24;;;;;;;1999.90;999.90;;;8.20;99.90;;;;;;5072691;28;20148;-83
2021/05/02 05:08:53;;;;;;;1999.90;999.90;;;8.30;99.90;;;;;;5090373;28;20191;-84
2021/05/02 05:11:20;;;;;;;1999.90;999.90;;;8.20;99.90;;;;;;5090812;28;20164;-84
2021/05/02 05:13:54;;;;;;;1999.90;999.90;;;8.20;99.90;;;;;;5090687;28;20191;-83
2021/05/02 05:16:32;;;;;;;;;;;;;;;;;;;;;
2021/05/02 05:19:01;;;;;;;1999.90;999.90;;;8.10;99.90;;;;;;5091010;28;20240;-83
2021/05/02 05:21:39;;;;;;;1999.90;999.90;;;8.20;99.90;;;;;;5073189;28;20559;-83
2021/05/02 05:24:29;;;;;;;1999.90;999.90;;;8.10;99.90;;;;;;5071994;28;20519;-83
2021/05/02 05:26:55;;;;;;;1999.90;999.90;;;8.10;99.90;;;;;;5072282;28;20180;-84
2021/05/02 05:29:34;;;;;;;1999.90;999.90;;;8.10;99.90;;;;;;5089617;28;20175;-84
2021/05/02 05:31:59;;;;;;;1999.90;999.90;;;8.20;99.90;;;;;;5072642;28;20156;-84
2021/05/02 05:34:32;;;;;;;1999.90;999.90;;;8.20;99.90;;;;;;5089659;28;20163;-84
2021/05/02 05:37:05;;;;;;;1999.90;999.90;;;8.20;99.90;;;;;;5072586;28;20437;-84
2021/05/02 05:39:35;;;;;;;1999.90;999.90;;;8.10;99.90;;;;;;5071392;28;20184;-84
2021/05/02 05:42:16;;;;;;;1999.90;999.90;;;8.20;99.90;;;;;;5072344;28;20168;-83
2021/05/02 05:45:02;;;;;;;1999.90;999.90;;;8.30;99.90;;;;;;5071799;28;20168;-83
2021/05/02 05:48:06;;;;;;;1999.90;999.90;;;8.30;99.90;;;;;;5090392;28;20659;-84
2021/05/02 05:51:13;;;;;;;1999.90;999.90;;;8.20;99.90;;;;;;5089158;28;20163;-83
2021/05/02 05:53:44;;;;;;;1999.90;999.90;;;8.10;99.90;;;;;;5072738;28;20761;-83
2021/05/02 05:56:37;;;;;;;1999.90;999.90;;;8.20;99.90;;;;;;5069566;28;20269;-84
2021/05/02 05:59:52;;;;;;;;;;;;;;;;;;;;;
2021/05/02 06:02:27;;;;;;;1999.90;999.90;;;8.40;99.90;;;;;;5090396;28;20184;-83
2021/05/02 06:05:04;;;;;;;1999.90;999.90;;;8.40;99.90;;;;;;5089691;28;20140;-83
2021/05/02 06:08:00;;;;;;;1999.90;999.90;;;8.50;99.90;;;;;;5090206;28;20651;-83
2021/05/02 06:11:15;;;;;;;;;;;;;;;;;;;;;
2021/05/02 06:13:53;;;;;;;1999.90;999.90;;;8.60;99.90;;;;;;5090050;28;20696;-84
2021/05/02 06:16:37;;;;;;;1999.90;999.90;;;8.70;99.90;;;;;;5072140;28;20251;-83
2021/05/02 06:19:07;;;;;;;1999.90;999.90;;;8.70;99.90;;;;;;5072730;28;20199;-83
2021/05/02 06:21:34;;;;;;;1999.90;999.90;;;8.60;99.90;;;;;;5090004;28;20174;-84
2021/05/02 06:24:13;;;;;;;1999.90;999.90;;;8.50;99.90;;;;;;5071373;28;20186;-84
2021/05/02 06:26:39;;;;;;;1999.90;999.90;;;8.40;99.90;;;;;;5071869;28;20254;-84
2021/05/02 06:29:23;;;;;;;1999.90;999.90;;;8.30;99.90;;;;;;5071633;28;20606;-83
2021/05/02 06:31:51;;;;;;;1999.90;999.90;;;8.40;99.90;;;;;;5071664;28;20263;-83
2021/05/02 06:34:24;;;;;;;1999.90;999.90;;;8.30;99.90;;;;;;5089720;28;20186;-84
2021/05/02 06:36:51;;;;;;;1999.90;999.90;;;8.30;99.90;;;;;;5132895;22;20190;-83
2021/05/02 06:39:57;;;;;;;;;;;;;;;;;;;;;
2021/05/02 06:42:35;;;;;;;1999.90;999.90;;;8.40;99.90;;;;;;5082417;28;20203;-84
2021/05/02 06:45:30;;;;;;;1999.90;999.90;;;8.40;99.90;;;;;;5071041;28;20194;-83
2021/05/02 06:48:07;;;;;;;1999.90;999.90;;;8.40;99.90;;;;;;5070251;28;20210;-84
2021/05/02 06:54:31;;;;;;;1999.90;999.90;;;8.40;99.90;;;;;;5088111;28;20240;-84
2021/05/02 06:57:12;;;;;;;1999.90;999.90;;;8.30;99.90;;;;;;5062580;28;20203;-84
2021/05/02 07:00:01;;;;;;;1999.90;999.90;;;8.30;99.90;;;;;;5070935;28;20183;-83
2021/05/02 07:02:45;;;;;;;1999.90;999.90;;;8.40;99.90;;;;;;5071888;28;20224;-83
2021/05/02 07:05:40;;;;;;;1999.90;999.90;;;8.50;99.90;;;;;;5071009;28;20186;-83
2021/05/02 07:08:31;;;;;;;;;;;;;;;;;;;;;
2021/05/02 07:12:07;;;;;;;1999.90;999.90;;;8.80;99.90;;;;;;5087970;28;20184;-83
2021/05/02 07:14:38;;;;;;;;;;;;;;;;;;;;;
2021/05/02 07:17:25;;;;;;;1999.90;999.90;;;8.90;99.90;;;;;;5083787;28;20243;-83
2021/05/02 07:20:02;;;;;;;1999.90;999.90;;;8.80;99.90;;;;;;5087142;28;20175;-83
2021/05/02 07:22:45;;;;;;;1999.90;999.90;;;9.00;99.90;;;;;;5068680;28;20159;-84
2021/05/02 07:25:56;;;;;;;1999.90;999.90;;;9.10;99.90;;;;;;5086749;28;20175;-83
2021/05/02 07:29:21;;;;;;;;;;;;;;;;;;;;;
2021/05/02 07:31:39;;;;;;;1999.90;999.90;;;9.10;99.90;;;;;;5012328;28;20246;-84
2021/05/02 07:34:22;;;;;;;1999.90;999.90;;;9.10;99.90;;;;;;5067119;28;20206;-84
2021/05/02 07:40:06;;;;;;;1999.90;999.90;;;9.50;99.90;;;;;;5087360;28;20243;-83
2021/05/02 07:42:46;;;;;;;1999.90;999.90;;;9.70;99.90;;;;;;5087951;28;20155;-85
2021/05/02 07:45:36;;;;;;;1999.90;999.90;;;9.70;99.90;;;;;;5068818;28;20160;-83
2021/05/02 07:48:07;;;;;;;1999.90;999.90;;;9.70;99.90;;;;;;5068631;28;20190;-84
2021/05/02 07:50:42;;;;;;;1999.90;999.90;;;9.70;99.90;;;;;;5086495;28;20144;-84
2021/05/02 07:53:18;;;;;;;1999.90;999.90;;;9.80;99.90;;;;;;5067571;28;20171;-84
2021/05/02 07:55:44;;;;;;;1999.90;999.90;;;10.00;99.90;;;;;;5085650;28;20155;-83
2021/05/02 07:58:16;;;;;;;1999.90;999.90;;;10.20;98.90;;;;;;5067439;28;20184;-85
2021/05/02 08:00:48;;;;;;;1999.90;999.90;;;10.30;98.60;;;;;;5066977;28;20168;-84
2021/05/02 08:03:17;;;;;;;1999.90;999.90;;;10.30;98.00;;;;;;5085673;28;20144;-85
2021/05/02 08:05:42;;;;;;;1999.90;999.90;;;10.10;96.90;;;;;;5086692;28;20160;-85
2021/05/02 08:08:11;;;;;;;1999.90;999.90;;;10.10;97.20;;;;;;5068542;28;20190;-85
2021/05/02 08:10:36;;;;;;;1999.90;999.90;;;10.20;94.70;;;;;;5068748;28;20493;-85
2021/05/02 08:13:02;;;;;;;1999.90;999.90;;;10.20;93.80;;;;;;5068486;28;20187;-85
2021/05/02 08:15:37;;;;;;;1999.90;999.90;;;10.20;91.90;;;;;;5086822;28;20160;-85
2021/05/02 08:18:11;;;;;;;1999.90;999.90;;;10.20;92.70;;;;;;5068716;28;20581;-86
2021/05/02 08:20:54;;;;;;;1999.90;999.90;;;10.10;90.40;;;;;;5067650;28;20205;-85
2021/05/02 08:23:26;;;;;;;1999.90;999.90;;;10.00;87.70;;;;;;5085964;28;20204;-85
2021/05/02 08:25:51;;;;;;;1999.90;999.90;;;10.00;89.90;;;;;;5066960;28;20172;-85
2021/05/02 08:28:17;;;;;;;1999.90;999.90;;;10.00;90.60;;;;;;5066725;28;20190;-85
2021/05/02 08:30:49;;;;;;;1999.90;999.90;;;10.00;90.00;;;;;;5083634;28;20198;-85
2021/05/02 08:33:17;;;;;;;1999.90;999.90;;;10.00;90.40;;;;;;5067874;28;20172;-85
2021/05/02 08:35:48;;;;;;;1999.90;999.90;;;9.90;91.30;;;;;;5067374;28;20164;-84
2021/05/02 08:38:15;;;;;;;1999.90;999.90;;;9.80;91.50;;;;;;5067629;28;20230;-85
2021/05/02 08:40:50;;;;;;;1999.90;999.90;;;9.70;93.50;;;;;;5067258;28;20171;-84
2021/05/02 08:43:18;;;;;;;1999.90;999.90;;;9.70;94.10;;;;;;5086125;28;20522;-85
2021/05/02 08:45:47;;;;;;;1999.90;999.90;;;9.60;93.10;;;;;;5068244;28;20164;-85
2021/05/02 08:48:20;;;;;;;1999.90;999.90;;;9.80;91.00;;;;;;5066804;28;20194;-85
2021/05/02 08:50:46;;;;;;;1999.90;999.90;;;9.90;91.90;;;;;;5067638;28;20254;-85
2021/05/02 08:53:12;;;;;;;1999.90;999.90;;;10.10;90.60;;;;;;5082929;28;20156;-84
2021/05/02 08:55:42;;;;;;;1999.90;999.90;;;10.20;89.80;;;;;;5064857;28;20168;-84
2021/05/02 08:58:16;;;;;;;1999.90;999.90;;;10.30;86.40;;;;;;5066595;28;20417;-86
2021/05/02 09:00:42;;;;;;;1999.90;999.90;;;10.20;84.70;;;;;;5084676;28;20144;-86
2021/05/02 09:03:08;;;;;;;1999.90;999.90;;;10.20;81.90;;;;;;5067139;28;20168;-85
2021/05/02 09:05:49;;;;;;;1999.90;999.90;;;10.10;84.50;;;;;;5084589;28;20694;-86
2021/05/02 09:08:34;;;;;;;1999.90;999.90;;;9.90;86.70;;;;;;5065751;28;20948;-86
2021/05/02 09:11:00;;;;;;;1999.90;999.90;;;9.90;89.10;;;;;;5065977;28;20210;-86
2021/05/02 09:13:28;;;;;;;1999.90;999.90;;;9.90;88.00;;;;;;5067093;28;20564;-86
2021/05/02 09:23:49;;;;;;;;;;;;;;;;;;;;;
2021/05/02 09:26:23;;;;;;;1999.90;999.90;;;10.80;66.80;;;;;;4978760;28;20246;-84
2021/05/02 09:29:07;;;;;;;1999.90;999.90;;;10.70;57.80;;;;;;5020976;28;20251;-86
2021/05/02 09:31:35;;;;;;;1999.90;999.90;;;10.60;61.80;;;;;;5043653;28;20187;-86
2021/05/02 09:34:18;;;;;;;1999.90;999.90;;;10.50;63.20;;;;;;5067872;28;20168;-86
2021/05/02 09:36:56;;;;;;;1999.90;999.90;;;10.40;70.60;;;;;;5069242;28;20183;-86
2021/05/02 09:39:42;;;;;;;1999.90;999.90;;;10.60;72.30;;;;;;5066788;28;20313;-87
2021/05/02 09:42:11;;;;;;;1999.90;999.90;;;10.50;68.90;;;;;;5086214;28;20163;-86
2021/05/02 09:44:38;;;;;;;1999.90;999.90;;;10.40;72.50;;;;;;5069898;28;20168;-86
2021/05/02 09:47:34;;;;;;;1999.90;999.90;;;10.50;74.80;;;;;;5069170;28;20202;-85
2021/05/02 09:50:04;;;;;;;1999.90;999.90;;;10.80;75.60;;;;;;5067585;28;20196;-85
2021/05/02 09:52:55;;;;;;;1999.90;999.90;;;11.20;70.00;;;;;;5068250;28;20175;-85
2021/05/02 09:55:42;;;;;;;1999.90;999.90;;;11.30;40.80;;;;;;5069795;28;20163;-86
2021/05/02 09:58:17;;;;;;;1999.90;999.90;;;11.20;45.30;;;;;;5086988;28;20176;-86
2021/05/02 10:00:57;;;;;;;1999.90;999.90;;;11.20;40.70;;;;;;5085500;28;20151;-86
2021/05/02 10:03:31;;;;;;;1999.90;999.90;;;11.00;41.30;;;;;;5068583;28;20168;-86
2021/05/02 10:06:06;;;;;;;1999.90;999.90;;;11.00;39.60;;;;;;5069679;28;20172;-86
2021/05/02 10:08:40;;;;;;;1999.90;999.90;;;11.00;40.70;;;;;;5068262;28;20694;-85
2021/05/02 10:11:08;;;;;;;1999.90;999.90;;;11.00;37.40;;;;;;5085150;28;20149;-86
2021/05/02 10:13:37;;;;;;;1999.90;999.90;;;11.10;36.70;;;;;;5154308;22;20223;-81
2021/05/02 10:16:03;;;;;;;1999.90;999.90;;;11.20;39.30;;;;;;5081198;28;20168;-81
2021/05/02 10:18:30;;;;;;;1999.90;999.90;;;11.20;37.40;;;;;;5079885;28;20191;-81
2021/05/02 10:20:56;;;;;;;1999.90;999.90;;;11.10;36.30;;;;;;5062195;28;20164;-81
2021/05/02 10:23:21;;;;;;;1999.90;999.90;;;11.20;41.70;;;;;;5082166;28;20160;-81
2021/05/02 10:25:50;;;;;;;1999.90;999.90;;;11.20;40.50;;;;;;5081734;28;20160;-82
2021/05/02 10:28:21;;;;;;;1999.90;999.90;;;11.10;40.40;;;;;;5081135;28;20197;-81
2021/05/02 10:30:48;;;;;;;1999.90;999.90;;;11.10;39.20;;;;;;5064023;28;20144;-80
2021/05/02 10:33:15;;;;;;;1999.90;999.90;;;11.30;38.20;;;;;;5085778;28;20167;-79
2021/05/02 10:35:51;;;;;;;1999.90;999.90;;;11.60;46.50;;;;;;5085656;28;20216;-80
2021/05/02 10:38:42;;;;;;;1999.90;999.90;;;11.80;29.70;;;;;;5082776;28;20659;-85
2021/05/02 10:41:20;;;;;;;1999.90;999.90;;;11.80;25.30;;;;;;5060591;28;20169;-85
2021/05/02 10:43:46;;;;;;;1999.90;999.90;;;11.70;21.40;;;;;;5060021;28;20199;-86
2021/05/02 10:46:43;;;;;;;1999.90;999.90;;;11.80;24.00;;;;;;5078561;28;20164;-85
2021/05/02 10:49:21;;;;;;;1999.90;999.90;;;11.90;22.50;;;;;;5059577;28;20171;-86
2021/05/02 10:51:52;;;;;;;1999.90;999.90;;;12.00;17.90;;;;;;5078034;28;20246;-86
2021/05/02 10:54:19;;;;;;;1999.90;999.90;;;12.40;15.10;;;;;;5058431;28;20532;-86
2021/05/02 10:56:49;;;;;;;1999.90;999.90;;;12.40;10.90;;;;;;5058859;28;20634;-86
2021/05/02 10:59:16;;;;;;;1999.90;999.90;;;12.50;8.30;;;;;;5058665;28;20282;-86
2021/05/02 11:01:45;;;;;;;1999.90;999.90;;;12.60;7.60;;;;;;5076999;28;20156;-86
2021/05/02 11:04:28;;;;;;;1999.90;999.90;;;12.60;8.00;;;;;;5057946;28;20171;-86
2021/05/02 11:06:54;;;;;;;1999.90;999.90;;;12.70;7.10;;;;;;5076731;28;20176;-86
2021/05/02 11:09:21;;;;;;;1999.90;999.90;;;12.80;7.30;;;;;;5058461;28;20179;-86
2021/05/02 11:11:52;;;;;;;1999.90;999.90;;;12.90;6.10;;;;;;5058527;28;20178;-85
2021/05/02 11:14:21;;;;;;;1999.90;999.90;;;12.90;6.00;;;;;;5076193;28;20182;-85
2021/05/02 11:16:50;;;;;;;1999.90;999.90;;;12.70;6.60;;;;;;5076583;28;20164;-86
2021/05/02 11:19:38;;;;;;;1999.90;999.90;;;12.70;4.00;;;;;;5057422;28;20558;-86
2021/05/02 11:22:08;;;;;;;1999.90;999.90;;;12.60;3.60;;;;;;5075601;28;20144;-86
2021/05/02 11:24:40;;;;;;;1999.90;999.90;;;12.60;3.40;;;;;;5058178;28;20163;-85
2021/05/02 11:29:59;;;;;;;1999.90;999.90;;;12.70;4.50;;;;;;5076149;28;20206;-86
2021/05/02 11:32:28;;;;;;;1999.90;999.90;;;12.80;3.50;;;;;;5058009;28;20156;-85
2021/05/02 11:34:56;;;;;;;1999.90;999.90;;;12.80;3.70;;;;;;5076129;28;20225;-85
2021/05/02 11:37:42;;;;;;;1999.90;999.90;;;12.90;1.60;;;;;;5075346;28;20188;-85
2021/05/02 11:40:29;;;;;;;1999.90;999.90;;;12.90;2.70;;;;;;5074434;28;20196;-86
2021/05/02 11:43:02;;;;;;;1999.90;999.90;;;12.70;1.00;;;;;;5056794;28;20247;-86
2021/05/02 11:45:43;;;;;;;1999.90;999.90;;;12.60;1.00;;;;;;5057480;28;20174;-86
2021/05/02 11:48:16;;;;;;;1999.90;999.90;;;12.40;1.00;;;;;;5075592;28;20574;-86
2021/05/02 11:50:43;;;;;;;1999.90;999.90;;;12.00;2.00;;;;;;5074722;28;20227;-86
2021/05/02 11:53:09;;;;;;;1999.90;999.90;;;11.90;2.20;;;;;;5075585;28;20162;-85
2021/05/02 11:55:38;;;;;;;1999.90;999.90;;;11.90;4.90;;;;;;5074746;28;20167;-86
2021/05/02 11:58:13;;;;;;;1999.90;999.90;;;12.00;4.60;;;;;;5074744;28;20425;-85
2021/05/02 12:00:47;;;;;;;1999.90;999.90;;;12.00;5.40;;;;;;5057291;28;20160;-86
2021/05/02 12:03:15;;;;;;;1999.90;999.90;;;12.00;4.90;;;;;;5057022;28;20167;-86
2021/05/02 12:05:57;;;;;;;1999.90;999.90;;;12.10;4.70;;;;;;5075352;28;20156;-86
2021/05/02 12:08:25;;;;;;;1999.90;999.90;;;12.20;3.80;;;;;;5057456;28;20183;-85
2021/05/02 12:10:59;;;;;;;1999.90;999.90;;;12.20;4.30;;;;;;5075216;28;20160;-86
2021/05/02 12:13:48;;;;;;;1999.90;999.90;;;12.20;4.50;;;;;;5056927;28;20209;-86
2021/05/02 12:16:18;;;;;;;1999.90;999.90;;;12.00;4.50;;;;;;5056474;28;20158;-85
2021/05/02 12:19:04;;;;;;;1999.90;999.90;;;12.10;4.30;;;;;;5074761;28;20605;-86
2021/05/02 12:21:46;;;;;;;1999.90;999.90;;;12.00;3.20;;;;;;5057152;28;20172;-85
2021/05/02 12:24:14;;;;;;;1999.90;999.90;;;12.20;3.80;;;;;;5056766;28;20176;-85
2021/05/02 12:26:55;;;;;;;1999.90;999.90;;;12.40;3.50;;;;;;5074805;28;20164;-86
2021/05/02 12:29:31;;;;;;;1999.90;999.90;;;12.50;3.50;;;;;;5056513;28;20168;-86
2021/05/02 12:32:11;;;;;;;1999.90;999.90;;;12.50;1.00;;;;;;5075503;28;20154;-85
2021/05/02 12:34:41;;;;;;;1999.90;999.90;;;12.70;1.50;;;;;;5074197;28;20646;-86
2021/05/02 12:37:12;;;;;;;1999.90;999.90;;;12.90;1.00;;;;;;5056818;28;20662;-85
2021/05/02 12:39:39;;;;;;;1999.90;999.90;;;13.00;1.00;;;;;;5074621;28;20190;-85
2021/05/02 12:42:08;;;;;;;1999.90;999.90;;;13.00;1.00;;;;;;5074917;28;20217;-86
2021/05/02 12:44:37;;;;;;;1999.90;999.90;;;12.70;1.00;;;;;;5074609;28;20643;-85
2021/05/02 12:47:24;;;;;;;1999.90;999.90;;;12.80;1.00;;;;;;5074688;28;20192;-85
2021/05/02 12:49:58;;;;;;;1999.90;999.90;;;12.90;1.00;;;;;;5073909;28;20175;-86
2021/05/02 12:52:39;;;;;;;1999.90;999.90;;;13.00;1.00;;;;;;5074683;28;20248;-86
2021/05/02 12:55:27;;;;;;;1999.90;999.90;;;13.10;1.00;;;;;;5056075;28;20166;-86
2021/05/02 12:58:12;;;;;;;1999.90;999.90;;;13.10;1.00;;;;;;5056285;28;20300;-85
2021/05/02 13:00:48;;;;;;;1999.90;999.90;;;13.10;1.00;;;;;;5075062;28;20511;-86
2021/05/02 13:06:02;;;;;;;1999.90;999.90;;;13.40;1.00;;;;;;5074823;28;20534;-85